Change the Weather History Date:

Friday, December 27, 2013

  Actual Average Record
Temperature  
Mean Temperature 30 °F -  
Max Temperature 37 °F 18 °F 41 °F (1997)
Min Temperature 24 °F 0 °F -25 °F (1960)
Degree Days  
Heating Degree Days 34    
Moisture  
Dew Point 26 °F    
Average Humidity 75    
Maximum Humidity 81    
Minimum Humidity 69    
Precipitation  
Precipitation 0.00 in - - ()
Sea Level Pressure  
Sea Level Pressure 29.81 in    
Wind  
Wind Speed 15 mph (WSW)    
Max Wind Speed 26 mph    
Max Gust Speed 31 mph    
Visibility 10 miles    
Events      
Averages and records for this station are not official NWS values.
T = Trace of Precipitation, MM = Missing Value Source: NWS Daily Summary

Daily Weather History Graph

Daily Weather History Graph

Search for Another Location

Airport or City:

Trip Planner

Search our weather history database for the weather conditions in past years. The results will help you decide how hot, cold, wet, or windy it might be!

Date:

Astronomy

Dec. 27, 2013 Rise Set
Actual Time 8:25 AM CST 4:48 PM CST
Civil Twilight 7:49 AM CST 5:24 PM CST
Nautical Twilight 7:09 AM CST 6:04 PM CST
Astronomical Twilight 6:31 AM CST 6:42 PM CST
Moon 2:43 AM CST (12/27) 1:13 PM CST (12/27)
Length of Visible Light 9h 35m
Length of Day
8h 22m
Waning Crescent, 28% of the Moon is Illuminated
Dec 27
Waning Crescent
Jan 1
New
Jan 7
First Quarter
Jan 15
Full
Jan 23
Last Quarter

Hourly Weather History & Observations

Time (CST) Temp. Windchill Dew Point Humidity Pressure Visibility Wind Dir Wind Speed Gust Speed Precip Events Conditions
12:15 AM 26.6 °F 13.8 °F 17.6 °F 69% 29.86 in 10.0 mi SSW 17.3 mph 23.0 mph N/A   Clear
12:35 AM 24.8 °F 13.4 °F 17.6 °F 74% 29.85 in 10.0 mi SSW 12.7 mph - N/A   Clear
12:55 AM 24.8 °F 11.9 °F 17.6 °F 74% 29.84 in 10.0 mi SW 16.1 mph - N/A   Clear
1:15 AM 24.8 °F 12.4 °F 17.6 °F 74% 29.82 in 10.0 mi SSW 15.0 mph - N/A   Clear
1:35 AM 24.8 °F 12.4 °F 17.6 °F 74% 29.81 in 10.0 mi SSW 15.0 mph - N/A   Clear
1:55 AM 26.6 °F 13.8 °F 17.6 °F 69% 29.79 in 10.0 mi SW 17.3 mph - N/A   Clear
2:15 AM 24.8 °F 11.9 °F 17.6 °F 74% 29.78 in 10.0 mi SW 16.1 mph - N/A   Clear
2:35 AM 24.8 °F 12.9 °F 17.6 °F 74% 29.79 in 10.0 mi SW 13.8 mph - N/A   Clear
2:55 AM 24.8 °F 14.0 °F 17.6 °F 74% 29.78 in 10.0 mi SW 11.5 mph - N/A   Mostly Cloudy
3:15 AM 28.4 °F 18.0 °F 19.4 °F 69% 29.76 in 10.0 mi SSW 12.7 mph - N/A   Overcast
3:35 AM 28.4 °F 17.0 °F 19.4 °F 69% 29.75 in 10.0 mi SW 15.0 mph - N/A   Overcast
3:55 AM 28.4 °F 16.2 °F 19.4 °F 69% 29.74 in 10.0 mi SW 17.3 mph - N/A   Overcast
4:15 AM 28.4 °F 17.5 °F 19.4 °F 69% 29.73 in 10.0 mi SW 13.8 mph - N/A   Scattered Clouds
4:35 AM 30.2 °F 19.3 °F 21.2 °F 69% 29.72 in 10.0 mi SW 15.0 mph - N/A   Clear
4:55 AM 30.2 °F 18.9 °F 21.2 °F 69% 29.71 in 10.0 mi WSW 16.1 mph - N/A   Clear
5:15 AM 30.2 °F 18.9 °F 21.2 °F 69% 29.71 in 10.0 mi WSW 16.1 mph - N/A   Clear
5:35 AM 30.2 °F 18.5 °F 23.0 °F 75% 29.70 in 10.0 mi WSW 17.3 mph - N/A   Clear
5:55 AM 32.0 °F 20.5 °F 24.8 °F 75% 29.70 in 10.0 mi WSW 18.4 mph - N/A   Clear
6:15 AM 33.8 °F 22.8 °F 24.8 °F 70% 29.70 in 10.0 mi WSW 18.4 mph - N/A   Clear
6:35 AM 32.0 °F 20.8 °F 24.8 °F 75% 29.70 in 10.0 mi West 17.3 mph - N/A   Clear
6:55 AM 33.8 °F 23.2 °F 24.8 °F 70% 29.71 in 10.0 mi West 17.3 mph - N/A   Clear
7:15 AM 33.8 °F 22.5 °F 26.6 °F 75% 29.71 in 10.0 mi WNW 19.6 mph - N/A   Clear
7:35 AM 35.6 °F 23.7 °F 26.6 °F 70% 29.71 in 10.0 mi WNW 24.2 mph - N/A   Clear
7:55 AM 35.6 °F 23.7 °F 26.6 °F 70% 29.72 in 10.0 mi WNW 24.2 mph - N/A   Clear
8:15 AM 35.6 °F 24.0 °F 26.6 °F 70% 29.73 in 10.0 mi WNW 23.0 mph 28.8 mph N/A   Clear
8:35 AM 35.6 °F 24.0 °F 26.6 °F 70% 29.74 in 10.0 mi WNW 23.0 mph 29.9 mph N/A   Clear
8:55 AM 35.6 °F 23.2 °F 26.6 °F 70% 29.74 in 10.0 mi WNW 26.5 mph 31.1 mph N/A   Clear
9:15 AM 35.6 °F 24.0 °F 26.6 °F 70% 29.76 in 10.0 mi WNW 23.0 mph - N/A   Clear
9:35 AM 35.6 °F 24.2 °F 26.6 °F 70% 29.78 in 10.0 mi WNW 21.9 mph 27.6 mph N/A   Clear
9:55 AM 35.6 °F 24.5 °F 26.6 °F 70% 29.79 in 10.0 mi WNW 20.7 mph - N/A   Clear
10:15 AM 35.6 °F 24.2 °F 26.6 °F 70% 29.81 in 10.0 mi WNW 21.9 mph - N/A   Clear
10:35 AM 35.6 °F 24.8 °F 28.4 °F 75% 29.82 in 10.0 mi WNW 19.6 mph - N/A   Mostly Cloudy
10:55 AM 35.6 °F 24.5 °F 28.4 °F 75% 29.83 in 10.0 mi WNW 20.7 mph - N/A   Overcast
11:15 AM 35.6 °F 24.8 °F 28.4 °F 75% 29.83 in 10.0 mi WNW 19.6 mph - N/A   Overcast
11:35 AM 35.6 °F 24.5 °F 28.4 °F 75% 29.83 in 10.0 mi WNW 20.7 mph - N/A   Overcast
11:55 AM 35.6 °F 25.5 °F 28.4 °F 75% 29.85 in 10.0 mi WNW 17.3 mph - N/A   Overcast
12:15 PM 37.4 °F 27.2 °F 28.4 °F 70% 29.85 in 10.0 mi WNW 19.6 mph - N/A   Overcast
12:35 PM 35.6 °F 25.9 °F 28.4 °F 75% 29.86 in 10.0 mi WNW 16.1 mph - N/A   Overcast
12:55 PM 35.6 °F 26.2 °F 30.2 °F 81% 29.87 in 10.0 mi WNW 15.0 mph - N/A   Overcast
1:15 PM 35.6 °F 25.9 °F 28.4 °F 75% 29.87 in 10.0 mi NW 16.1 mph - N/A   Overcast
1:35 PM 35.6 °F 27.1 °F 30.2 °F 81% 29.87 in 10.0 mi WNW 12.7 mph - N/A   Overcast
1:55 PM 35.6 °F 28.0 °F 28.4 °F 75% 29.87 in 10.0 mi WNW 10.4 mph - N/A   Overcast
2:15 PM 35.6 °F 28.0 °F 30.2 °F 81% 29.87 in 10.0 mi WNW 10.4 mph - N/A   Overcast
2:35 PM 35.6 °F 28.0 °F 28.4 °F 75% 29.87 in 10.0 mi WNW 10.4 mph - N/A   Overcast
2:55 PM 35.6 °F 29.2 °F 28.4 °F 75% 29.88 in 10.0 mi West 8.1 mph - N/A   Overcast
3:15 PM 35.6 °F 28.0 °F 28.4 °F 75% 29.89 in 10.0 mi West 10.4 mph - N/A   Overcast
3:35 PM 35.6 °F 28.0 °F 28.4 °F 75% 29.89 in 10.0 mi West 10.4 mph - N/A   Overcast
3:55 PM 35.6 °F 28.6 °F 28.4 °F 75% 29.89 in 10.0 mi West 9.2 mph - N/A   Overcast
4:15 PM 35.6 °F 28.0 °F 28.4 °F 75% 29.89 in 10.0 mi West 10.4 mph - N/A   Overcast
4:35 PM 35.6 °F 28.6 °F 28.4 °F 75% 29.89 in 10.0 mi WNW 9.2 mph - N/A   Overcast
4:55 PM 33.8 °F 26.4 °F 28.4 °F 81% 29.89 in 10.0 mi WNW 9.2 mph - N/A   Overcast
5:15 PM 35.6 °F 29.9 °F 28.4 °F 75% 29.89 in 10.0 mi West 6.9 mph - N/A   Overcast
5:35 PM 35.6 °F 30.7 °F 28.4 °F 75% 29.90 in 10.0 mi West 5.8 mph - N/A   Overcast
5:55 PM 35.6 °F 32.8 °F 28.4 °F 75% 29.89 in 10.0 mi West 3.5 mph - N/A   Overcast
6:15 PM 35.6 °F 30.7 °F 28.4 °F 75% 29.89 in 10.0 mi SW 5.8 mph - N/A   Overcast
6:35 PM 33.8 °F 29.6 °F 28.4 °F 81% 29.88 in 10.0 mi SW 4.6 mph - N/A   Overcast
6:55 PM 33.8 °F 30.8 °F 28.4 °F 81% 29.89 in 10.0 mi SW 3.5 mph - N/A   Overcast
7:15 PM 33.8 °F - 28.4 °F 81% 29.87 in 10.0 mi Calm Calm - N/A   Overcast
7:35 PM 33.8 °F - 28.4 °F 81% 29.87 in 10.0 mi Calm Calm - N/A   Overcast
7:55 PM 33.8 °F 30.8 °F 28.4 °F 81% 29.86 in 10.0 mi South 3.5 mph - N/A   Overcast
8:15 PM 33.8 °F 30.8 °F 28.4 °F 81% 29.86 in 10.0 mi South 3.5 mph - N/A   Overcast
8:35 PM 33.8 °F 29.6 °F 28.4 °F 81% 29.85 in 10.0 mi SSW 4.6 mph - N/A   Overcast
8:55 PM 33.8 °F 27.7 °F 28.4 °F 81% 29.86 in 10.0 mi SSW 6.9 mph - N/A   Overcast
9:15 PM 33.8 °F 28.6 °F 28.4 °F 81% 29.85 in 10.0 mi SSW 5.8 mph - N/A   Overcast
9:35 PM 33.8 °F 27.0 °F 28.4 °F 81% 29.83 in 10.0 mi South 8.1 mph - N/A   Overcast
9:55 PM 33.8 °F 28.6 °F 28.4 °F 81% 29.84 in 10.0 mi SSW 5.8 mph - N/A   Overcast
10:15 PM 33.8 °F 27.7 °F 28.4 °F 81% 29.83 in 10.0 mi South 6.9 mph - N/A   Overcast
10:35 PM 33.8 °F 27.7 °F 28.4 °F 81% 29.82 in 10.0 mi SSE 6.9 mph - N/A   Overcast
10:55 PM 33.8 °F 29.6 °F 28.4 °F 81% 29.81 in 10.0 mi SE 4.6 mph - N/A   Overcast
11:15 PM 33.8 °F 27.7 °F 28.4 °F 81% 29.81 in 10.0 mi SE 6.9 mph - N/A   Overcast
11:35 PM 33.8 °F 27.0 °F 28.4 °F 81% 29.79 in 10.0 mi SE 8.1 mph - N/A   Overcast
11:55 PM 33.8 °F 24.8 °F 28.4 °F 81% 29.78 in 10.0 mi SSE 12.7 mph - N/A   Overcast